createdAt,value
2022-12-18T00:00:09.739Z,7.40
2022-12-18T00:05:07.083Z,3.05
2022-12-18T00:07:37.426Z,3.28
2022-12-18T00:10:06.961Z,2.55
2022-12-18T00:12:35.373Z,5.50
2022-12-18T00:15:03.731Z,4.05
2022-12-18T00:17:31.915Z,4.15
2022-12-18T00:20:00.210Z,5.05
2022-12-18T00:22:28.459Z,3.25
2022-12-18T00:24:58.162Z,4.78
2022-12-18T00:27:26.373Z,3.83
2022-12-18T00:29:54.779Z,4.20
2022-12-18T00:32:22.998Z,4.93
2022-12-18T00:34:51.265Z,5.60
2022-12-18T00:37:20.458Z,6.28
2022-12-18T00:39:51.453Z,3.30
2022-12-18T00:42:38.460Z,6.45
2022-12-18T00:45:12.313Z,3.05
2022-12-18T00:47:41.954Z,3.92
2022-12-18T00:50:11.584Z,6.53
2022-12-18T00:52:43.740Z,5.38
2022-12-18T00:55:12.766Z,2.05
2022-12-18T00:57:42.780Z,4.00
2022-12-18T01:00:16.386Z,3.15
2022-12-18T01:02:45.424Z,4.32
2022-12-18T01:05:15.301Z,3.65
2022-12-18T01:07:44.015Z,2.97
2022-12-18T01:10:14.229Z,2.22
2022-12-18T01:12:44.332Z,3.20
2022-12-18T01:15:14.410Z,4.47
2022-12-18T01:17:42.660Z,3.30
2022-12-18T01:20:13.205Z,8.25
2022-12-18T01:22:41.948Z,6.53
2022-12-18T01:25:10.869Z,2.33
2022-12-18T01:27:39.193Z,1.15
2022-12-18T01:30:10.181Z,2.42
2022-12-18T01:32:38.553Z,2.50
2022-12-18T01:35:08.077Z,2.42
2022-12-18T01:37:36.313Z,1.42
2022-12-18T01:40:04.931Z,3.05
2022-12-18T01:42:33.242Z,2.28
2022-12-18T01:45:23.503Z,1.63
2022-12-18T01:47:54.333Z,4.40
2022-12-18T01:50:25.553Z,3.08
2022-12-18T01:52:56.989Z,2.53
2022-12-18T01:55:29.677Z,4.95
2022-12-18T01:58:00.751Z,1.42
2022-12-18T02:00:31.397Z,3.63
2022-12-18T02:02:59.761Z,2.75
2022-12-18T02:05:39.251Z,2.38
2022-12-18T02:08:12.980Z,1.85
2022-12-18T02:10:49.903Z,2.63
2022-12-18T02:13:26.370Z,1.92
2022-12-18T02:16:05.962Z,1.92
2022-12-18T02:18:38.351Z,1.15
2022-12-18T02:21:13.785Z,2.40
2022-12-18T02:23:51.200Z,1.73
2022-12-18T02:26:24.294Z,4.25
2022-12-18T02:28:57.297Z,1.50
2022-12-18T02:31:29.243Z,1.50
2022-12-18T02:34:02.042Z,1.35
2022-12-18T02:36:31.747Z,2.60
2022-12-18T02:39:01.901Z,2.47
2022-12-18T02:41:32.476Z,2.70
2022-12-18T02:44:08.853Z,2.97
2022-12-18T02:46:44.685Z,3.85
2022-12-18T02:49:25.319Z,2.85
2022-12-18T02:51:57.854Z,5.03
2022-12-18T02:54:38.213Z,2.58
2022-12-18T02:57:20.621Z,2.40
2022-12-18T03:00:01.045Z,3.70
2022-12-18T03:02:36.426Z,2.50
2022-12-18T03:05:14.020Z,2.88
2022-12-18T03:07:48.325Z,3.13
2022-12-18T03:10:21.953Z,4.22
2022-12-18T03:12:55.768Z,2.45
2022-12-18T03:15:30.617Z,3.05
2022-12-18T03:18:05.085Z,3.45
2022-12-18T03:20:36.367Z,3.83
2022-12-18T03:23:10.371Z,2.03
2022-12-18T03:25:43.443Z,5.70
2022-12-18T03:28:15.941Z,4.03
2022-12-18T03:30:46.637Z,3.15
2022-12-18T03:33:20.738Z,3.58
2022-12-18T03:35:49.287Z,3.22
2022-12-18T03:38:17.773Z,2.50
2022-12-18T03:40:55.249Z,2.40
2022-12-18T03:43:37.382Z,2.55
2022-12-18T03:46:10.170Z,2.08
2022-12-18T03:48:44.449Z,3.13
2022-12-18T03:51:17.278Z,2.13
2022-12-18T03:53:52.535Z,3.58
2022-12-18T03:56:23.350Z,2.30
2022-12-18T03:58:54.627Z,2.33
2022-12-18T04:01:27.961Z,3.08
2022-12-18T04:03:57.231Z,3.90
2022-12-18T04:06:25.774Z,3.78
2022-12-18T04:08:54.633Z,3.78
2022-12-18T04:11:23.394Z,6.55
2022-12-18T04:13:57.342Z,4.78
2022-12-18T04:16:25.696Z,3.20
2022-12-18T04:18:54.259Z,2.28
2022-12-18T04:21:23.714Z,7.13
2022-12-18T04:23:52.171Z,3.47
2022-12-18T04:26:20.550Z,3.70
2022-12-18T04:28:48.931Z,4.07
2022-12-18T04:31:18.610Z,3.85
2022-12-18T04:33:46.901Z,2.88
2022-12-18T04:36:15.120Z,3.15
2022-12-18T04:38:43.447Z,3.13
2022-12-18T04:41:12.099Z,4.93
2022-12-18T04:43:40.734Z,3.05
2022-12-18T04:46:10.616Z,2.83
2022-12-18T04:48:40.457Z,3.95
2022-12-18T04:51:09.364Z,2.75
2022-12-18T04:53:37.955Z,3.45
2022-12-18T04:56:08.772Z,2.63
2022-12-18T04:58:37.249Z,2.67
2022-12-18T05:01:05.752Z,4.43
2022-12-18T05:03:34.109Z,1.92
2022-12-18T05:06:04.019Z,3.30
2022-12-18T05:08:32.861Z,2.75
2022-12-18T05:11:02.172Z,2.53
2022-12-18T05:13:30.793Z,2.80
2022-12-18T05:15:59.334Z,5.38
2022-12-18T05:18:28.438Z,3.08
2022-12-18T05:20:57.304Z,1.35
2022-12-18T05:23:27.414Z,2.28
2022-12-18T05:25:57.368Z,4.20
2022-12-18T05:28:27.078Z,2.90
2022-12-18T05:30:57.324Z,3.85
2022-12-18T05:33:27.803Z,3.03
2022-12-18T05:35:57.311Z,2.08
2022-12-18T05:38:28.764Z,2.65
2022-12-18T05:40:57.690Z,3.22
2022-12-18T05:43:29.117Z,3.05
2022-12-18T05:45:58.485Z,5.22
2022-12-18T05:50:54.889Z,4.03
2022-12-18T05:53:23.157Z,4.63
2022-12-18T05:55:52.903Z,3.85
2022-12-18T05:58:21.221Z,5.13
2022-12-18T06:00:49.499Z,4.25
2022-12-18T06:03:17.821Z,2.45
2022-12-18T06:05:47.247Z,3.30
2022-12-18T06:10:44.623Z,3.42
2022-12-18T06:13:14.332Z,4.88
2022-12-18T06:15:42.572Z,3.58
2022-12-18T06:18:10.827Z,5.22
2022-12-18T06:20:40.728Z,3.75
2022-12-18T06:23:09.140Z,4.43
2022-12-18T06:25:40.424Z,3.42
2022-12-18T06:28:08.787Z,2.45
2022-12-18T06:30:38.491Z,3.45
2022-12-18T06:33:07.726Z,3.38
2022-12-18T06:35:36.077Z,3.60
2022-12-18T06:38:04.649Z,3.25
2022-12-18T06:40:33.240Z,6.00
2022-12-18T06:43:01.523Z,1.33
2022-12-18T06:45:30.245Z,3.17
2022-12-18T06:48:00.066Z,5.05
2022-12-18T06:50:28.581Z,2.80
2022-12-18T06:52:56.907Z,3.92
2022-12-18T06:55:25.218Z,3.45
2022-12-18T06:57:53.737Z,2.92
2022-12-18T07:00:22.064Z,7.00
2022-12-18T07:02:50.427Z,2.40
2022-12-18T07:05:20.266Z,6.30
2022-12-18T07:07:48.557Z,4.10
2022-12-18T07:10:16.976Z,3.53
2022-12-18T07:12:45.269Z,1.42
2022-12-18T07:15:13.538Z,3.00
2022-12-18T07:17:41.897Z,2.53
2022-12-18T07:20:15.249Z,5.40
2022-12-18T07:22:45.153Z,4.07
2022-12-18T07:25:13.458Z,4.38
2022-12-18T07:27:41.705Z,2.17
2022-12-18T07:30:12.065Z,1.48
2022-12-18T07:32:40.400Z,2.92
2022-12-18T07:35:08.954Z,2.90
2022-12-18T07:37:37.255Z,4.43
2022-12-18T07:40:08.270Z,7.40
2022-12-18T07:42:37.851Z,4.53
2022-12-18T07:45:07.193Z,4.97
2022-12-18T07:50:05.789Z,3.35
2022-12-18T07:52:34.130Z,6.30
2022-12-18T07:55:02.674Z,5.18
2022-12-18T07:57:50.090Z,4.07
2022-12-18T08:00:20.474Z,6.07
2022-12-18T08:02:49.920Z,8.10
2022-12-18T08:05:18.448Z,23.17
2022-12-18T08:07:46.748Z,11.32
2022-12-18T08:10:15.306Z,17.52
2022-12-18T08:12:44.909Z,15.30
2022-12-18T08:15:13.388Z,16.13
2022-12-18T08:17:41.601Z,13.43
2022-12-18T08:20:11.150Z,22.83
2022-12-18T08:22:40.063Z,15.40
2022-12-18T08:25:09.271Z,16.38
2022-12-18T08:30:08.917Z,7.57
2022-12-18T08:32:37.462Z,8.65
2022-12-18T08:35:06.598Z,11.82
2022-12-18T08:37:34.863Z,8.45
2022-12-18T08:40:03.343Z,6.72
2022-12-18T08:42:49.159Z,5.95
2022-12-18T08:45:19.086Z,3.50
2022-12-18T08:47:47.391Z,5.93
2022-12-18T08:50:19.233Z,14.57
2022-12-18T08:52:47.639Z,3.67
2022-12-18T08:55:16.569Z,5.97
2022-12-18T08:57:44.817Z,4.53
2022-12-18T09:00:15.189Z,6.68
2022-12-18T09:02:45.455Z,9.65
2022-12-18T09:05:13.872Z,19.48
2022-12-18T09:07:42.133Z,14.85
2022-12-18T09:10:10.620Z,14.80
2022-12-18T09:12:38.865Z,10.98
2022-12-18T09:15:08.219Z,15.95
2022-12-18T09:17:36.498Z,13.48
2022-12-18T09:20:07.162Z,14.93
2022-12-18T09:22:35.460Z,17.75
2022-12-18T09:25:03.675Z,16.58
2022-12-18T09:27:31.938Z,12.95
2022-12-18T09:30:00.378Z,10.50
2022-12-18T09:32:28.819Z,15.63
2022-12-18T09:34:57.085Z,7.60
2022-12-18T09:37:26.882Z,15.93
2022-12-18T09:39:55.138Z,11.48
2022-12-18T09:42:24.405Z,10.27
2022-12-18T09:44:55.252Z,8.80
2022-12-18T09:47:28.099Z,10.40
2022-12-18T09:50:01.806Z,22.52
2022-12-18T09:52:36.325Z,16.15
2022-12-18T09:55:12.841Z,19.40
2022-12-18T09:57:47.415Z,16.80
2022-12-18T10:00:21.477Z,9.50
2022-12-18T10:02:51.865Z,7.05
2022-12-18T10:05:31.280Z,6.40
2022-12-18T10:08:07.846Z,12.45
2022-12-18T10:10:42.135Z,21.90
2022-12-18T10:13:20.756Z,18.50
2022-12-18T10:16:03.806Z,14.75
2022-12-18T10:18:51.161Z,9.65
2022-12-18T10:21:22.492Z,7.32
2022-12-18T10:24:00.535Z,5.68
2022-12-18T10:26:28.913Z,4.30
2022-12-18T10:29:03.803Z,6.22
2022-12-18T10:31:34.022Z,3.55
2022-12-18T10:34:02.730Z,2.95
2022-12-18T10:36:31.591Z,2.92
2022-12-18T10:39:17.314Z,5.53
2022-12-18T10:41:46.190Z,4.53
2022-12-18T10:44:19.792Z,4.68
2022-12-18T10:46:50.107Z,4.25
2022-12-18T10:49:24.633Z,2.42
2022-12-18T10:52:05.917Z,2.58
2022-12-18T10:54:37.154Z,3.65
2022-12-18T10:57:19.305Z,2.03
2022-12-18T10:59:55.776Z,4.72
2022-12-18T11:02:35.731Z,4.32
2022-12-18T11:05:06.377Z,3.17
2022-12-18T11:07:51.204Z,2.10
2022-12-18T11:10:22.874Z,4.35
2022-12-18T11:12:51.672Z,4.70
2022-12-18T11:15:23.192Z,2.78
2022-12-18T11:17:53.111Z,3.33
2022-12-18T11:20:32.223Z,2.35
2022-12-18T11:23:02.794Z,2.53
2022-12-18T11:25:36.196Z,4.97
2022-12-18T11:28:07.264Z,3.20
2022-12-18T11:30:37.524Z,3.65
2022-12-18T11:33:08.699Z,2.65
2022-12-18T11:35:46.771Z,3.47
2022-12-18T11:38:26.330Z,5.20
2022-12-18T11:41:00.347Z,1.85
2022-12-18T11:43:32.841Z,3.70
2022-12-18T11:46:05.897Z,3.83
2022-12-18T11:48:40.026Z,3.25
2022-12-18T11:51:16.787Z,4.13
2022-12-18T11:53:45.061Z,3.78
2022-12-18T11:56:29.864Z,3.92
2022-12-18T11:59:07.337Z,2.50
2022-12-18T12:01:48.414Z,5.32
2022-12-18T12:04:58.567Z,4.25
2022-12-18T12:07:39.425Z,4.68
2022-12-18T12:10:20.813Z,2.35
2022-12-18T12:13:02.363Z,3.33
2022-12-18T12:18:16.937Z,3.53
2022-12-18T12:20:52.479Z,3.42
2022-12-18T12:23:30.698Z,5.50
2022-12-18T12:26:05.116Z,6.22
2022-12-18T12:28:58.154Z,7.88
2022-12-18T12:31:40.361Z,4.07
2022-12-18T12:34:18.637Z,3.53
2022-12-18T12:37:04.219Z,2.47
2022-12-18T12:39:36.582Z,3.78
2022-12-18T12:42:25.413Z,2.45
2022-12-18T12:44:59.175Z,3.25
2022-12-18T12:47:31.980Z,3.53
2022-12-18T12:50:04.558Z,2.47
2022-12-18T12:52:42.073Z,4.13
2022-12-18T12:55:18.183Z,2.65
2022-12-18T12:57:57.214Z,3.08
2022-12-18T13:00:29.217Z,3.72
2022-12-18T13:03:05.656Z,4.47
2022-12-18T13:05:41.762Z,1.75
2022-12-18T13:08:11.559Z,4.05
2022-12-18T13:10:42.733Z,2.70
2022-12-18T13:13:11.633Z,4.65
2022-12-18T13:15:44.221Z,5.05
2022-12-18T13:18:21.706Z,6.13
2022-12-18T13:20:55.396Z,8.77
2022-12-18T13:23:35.775Z,9.55
2022-12-18T13:26:35.276Z,7.30
2022-12-18T13:29:05.252Z,7.97
2022-12-18T13:32:01.792Z,5.00
2022-12-18T13:34:32.706Z,6.60
2022-12-18T13:37:34.774Z,3.55
2022-12-18T13:40:03.183Z,4.22
2022-12-18T13:42:58.414Z,4.22
2022-12-18T13:46:01.635Z,3.53
2022-12-18T13:48:34.307Z,2.75
2022-12-18T13:51:05.510Z,4.40
2022-12-18T13:53:39.373Z,2.85
2022-12-18T13:56:08.386Z,2.45
2022-12-18T13:58:36.833Z,3.10
2022-12-18T14:01:06.001Z,2.28
2022-12-18T14:03:35.885Z,3.20
2022-12-18T14:06:08.057Z,2.78
2022-12-18T14:08:41.335Z,6.60
2022-12-18T14:11:22.294Z,2.60
2022-12-18T14:13:51.519Z,3.10
2022-12-18T14:16:20.151Z,5.57
2022-12-18T14:18:55.505Z,3.05
2022-12-18T14:21:30.289Z,2.50
2022-12-18T14:24:15.410Z,3.75
2022-12-18T14:26:45.577Z,4.05
2022-12-18T14:29:28.426Z,1.92
2022-12-18T14:32:17.390Z,2.38
2022-12-18T14:34:48.793Z,2.55
2022-12-18T14:37:20.167Z,2.92
2022-12-18T14:39:56.313Z,3.78
2022-12-18T14:42:28.868Z,2.45
2022-12-18T14:45:43.384Z,3.47
2022-12-18T14:48:23.248Z,1.90
2022-12-18T14:51:02.058Z,4.07
2022-12-18T14:53:41.711Z,3.92
2022-12-18T14:56:18.546Z,4.45
2022-12-18T14:58:49.323Z,17.40
2022-12-18T15:01:23.837Z,3.70
2022-12-18T15:03:53.553Z,8.52
2022-12-18T15:06:30.213Z,8.80
2022-12-18T15:08:59.794Z,7.40
2022-12-18T15:11:31.011Z,9.52
2022-12-18T15:14:01.656Z,9.32
2022-12-18T15:16:30.418Z,9.85
2022-12-18T15:18:58.749Z,10.43
2022-12-18T15:21:31.653Z,10.60
2022-12-18T15:24:00.970Z,7.93
2022-12-18T15:29:09.084Z,9.80
2022-12-18T15:31:39.986Z,9.40
2022-12-18T15:34:21.269Z,8.25
2022-12-18T15:36:53.078Z,6.47
2022-12-18T15:39:21.466Z,9.13
2022-12-18T15:42:07.075Z,7.47
2022-12-18T15:44:35.766Z,7.53
2022-12-18T15:47:04.083Z,9.98
2022-12-18T15:49:32.416Z,6.63
2022-12-18T15:52:04.001Z,8.98
2022-12-18T15:54:49.538Z,7.32
2022-12-18T15:57:27.493Z,11.93
2022-12-18T15:59:59.121Z,8.65
2022-12-18T16:02:28.953Z,9.40
2022-12-18T16:04:57.386Z,8.65
2022-12-18T16:07:30.274Z,13.82
2022-12-18T16:10:00.417Z,11.05
2022-12-18T16:12:30.920Z,11.68
2022-12-18T16:14:59.218Z,11.73
2022-12-18T16:17:27.614Z,12.95
2022-12-18T16:19:56.039Z,12.32
2022-12-18T16:22:27.741Z,9.63
2022-12-18T16:24:57.746Z,11.15
2022-12-18T16:27:26.949Z,9.52
2022-12-18T16:29:55.328Z,12.30
2022-12-18T16:32:24.801Z,11.60
2022-12-18T16:34:53.254Z,10.23
2022-12-18T16:37:21.600Z,10.02
2022-12-18T16:39:51.538Z,10.27
2022-12-18T16:42:21.543Z,11.02
2022-12-18T16:44:51.359Z,12.90
2022-12-18T16:47:20.113Z,9.02
2022-12-18T16:49:51.787Z,9.82
2022-12-18T16:52:20.687Z,9.90
2022-12-18T16:54:50.685Z,17.23
2022-12-18T16:57:21.525Z,13.23
2022-12-18T16:59:53.573Z,13.50
2022-12-18T17:02:24.503Z,12.48
2022-12-18T17:04:55.668Z,9.13
2022-12-18T17:07:24.320Z,12.45
2022-12-18T17:09:54.325Z,12.23
2022-12-18T17:12:23.277Z,8.88
2022-12-18T17:14:51.686Z,10.23
2022-12-18T17:17:23.172Z,13.43
2022-12-18T17:19:52.469Z,10.27
2022-12-18T17:22:21.301Z,9.70
2022-12-18T17:24:49.974Z,9.35
2022-12-18T17:27:19.875Z,10.57
2022-12-18T17:29:48.942Z,11.73
2022-12-18T17:34:46.124Z,10.75
2022-12-18T17:37:17.195Z,11.90
2022-12-18T17:39:45.577Z,12.50
2022-12-18T17:42:15.693Z,11.30
2022-12-18T17:44:46.059Z,11.80
2022-12-18T17:47:15.395Z,20.65
2022-12-18T17:52:12.251Z,13.68
2022-12-18T17:54:42.111Z,7.38
2022-12-18T17:57:10.773Z,11.82
2022-12-18T17:59:39.184Z,6.82
2022-12-18T18:02:10.962Z,10.55
2022-12-18T18:04:39.505Z,12.20
2022-12-18T18:07:07.878Z,9.55
2022-12-18T18:09:36.175Z,10.07
2022-12-18T18:12:21.780Z,9.02
2022-12-18T18:14:50.409Z,11.45
2022-12-18T18:17:20.700Z,7.75
2022-12-18T18:19:49.606Z,9.05
2022-12-18T18:22:18.746Z,6.55
2022-12-18T18:24:47.831Z,11.50
2022-12-18T18:27:16.387Z,9.82
2022-12-18T18:29:45.148Z,9.35
2022-12-18T18:32:13.479Z,9.70
2022-12-18T18:34:43.197Z,15.27
2022-12-18T18:37:11.905Z,12.55
2022-12-18T18:39:40.427Z,11.73
2022-12-18T18:42:08.936Z,11.32
2022-12-18T18:44:37.778Z,13.07
2022-12-18T18:47:09.420Z,13.25
2022-12-18T18:49:38.475Z,16.33
2022-12-18T18:52:08.351Z,12.70
2022-12-18T18:54:36.644Z,10.23
2022-12-18T18:57:20.304Z,15.55
2022-12-18T18:59:49.738Z,15.93
2022-12-18T19:02:18.983Z,18.13
2022-12-18T19:04:47.788Z,34.22
2022-12-18T19:07:29.994Z,42.35
2022-12-18T19:10:03.560Z,22.15
2022-12-18T19:12:51.912Z,25.42
2022-12-18T19:15:20.460Z,11.98
2022-12-18T19:17:49.105Z,25.02
2022-12-18T19:20:18.285Z,22.70
2022-12-18T19:22:54.370Z,33.70
2022-12-18T19:25:29.691Z,14.30
2022-12-18T19:28:21.647Z,58.28
2022-12-18T19:30:55.369Z,51.08
2022-12-18T19:33:44.844Z,38.45
2022-12-18T19:36:16.576Z,21.35
2022-12-18T19:38:46.561Z,54.30
2022-12-18T19:41:15.504Z,19.45
2022-12-18T19:43:44.532Z,19.63
2022-12-18T19:46:15.404Z,28.98
2022-12-18T19:48:45.470Z,31.58
2022-12-18T19:51:16.585Z,28.48
2022-12-18T19:53:47.182Z,20.25
2022-12-18T19:56:17.839Z,22.45
2022-12-18T19:58:46.595Z,14.95
2022-12-18T20:01:16.567Z,14.75
2022-12-18T20:03:51.716Z,17.15
2022-12-18T20:06:27.081Z,18.52
2022-12-18T20:09:00.689Z,18.25
2022-12-18T20:11:29.885Z,18.23
2022-12-18T20:13:58.251Z,15.80
2022-12-18T20:16:26.838Z,11.75
2022-12-18T20:18:55.237Z,16.17
2022-12-18T20:21:25.237Z,11.05
2022-12-18T20:26:25.150Z,10.65
2022-12-18T20:28:53.833Z,10.85
2022-12-18T20:31:22.230Z,8.85
2022-12-18T20:33:52.236Z,10.18
2022-12-18T20:36:24.624Z,12.98
2022-12-18T20:38:59.218Z,12.82
2022-12-18T20:41:37.323Z,11.73
2022-12-18T20:44:10.994Z,10.73
2022-12-18T20:46:53.106Z,14.57
2022-12-18T20:49:21.717Z,8.52
2022-12-18T20:51:52.578Z,10.70
2022-12-18T20:54:21.235Z,9.48
2022-12-18T20:56:51.513Z,10.40
2022-12-18T20:59:20.334Z,10.80
2022-12-18T21:01:49.483Z,8.63
2022-12-18T21:06:51.666Z,8.05
2022-12-18T21:09:22.724Z,9.55
2022-12-18T21:12:11.138Z,8.13
2022-12-18T21:14:43.353Z,9.13
2022-12-18T21:17:12.216Z,8.90
2022-12-18T21:19:41.540Z,9.68
2022-12-18T21:22:11.015Z,7.40
2022-12-18T21:24:39.614Z,10.63
2022-12-18T21:27:09.324Z,9.88
2022-12-18T21:29:41.253Z,9.90
2022-12-18T21:32:10.306Z,9.80
2022-12-18T21:34:43.312Z,6.68
2022-12-18T21:37:14.587Z,7.07
2022-12-18T21:39:42.833Z,9.98
2022-12-18T21:42:32.396Z,11.77
2022-12-18T21:45:06.904Z,17.40
2022-12-18T21:47:36.927Z,16.65
2022-12-18T21:50:06.558Z,21.58
2022-12-18T21:52:35.929Z,19.73
2022-12-18T21:55:09.453Z,22.17
2022-12-18T21:57:44.056Z,19.17
2022-12-18T22:00:18.430Z,17.15
2022-12-18T22:02:49.598Z,19.88
2022-12-18T22:05:36.571Z,12.43
2022-12-18T22:08:05.164Z,19.75
2022-12-18T22:10:33.814Z,21.33
2022-12-18T22:13:03.881Z,11.20
2022-12-18T22:15:32.192Z,14.23
2022-12-18T22:18:00.820Z,16.48
2022-12-18T22:20:29.802Z,16.75
2022-12-18T22:22:58.613Z,16.42
2022-12-18T22:25:28.126Z,12.00
2022-12-18T22:28:13.800Z,25.40
2022-12-18T22:30:43.754Z,19.38
2022-12-18T22:33:12.191Z,16.00
2022-12-18T22:35:40.839Z,13.43
2022-12-18T22:38:09.558Z,9.93
2022-12-18T22:40:37.890Z,11.88
2022-12-18T22:43:06.471Z,12.73
2022-12-18T22:45:37.988Z,12.77
2022-12-18T22:48:08.870Z,13.15
2022-12-18T22:50:37.471Z,19.35
2022-12-18T22:53:07.843Z,12.40
2022-12-18T22:55:36.707Z,11.73
2022-12-18T23:00:33.819Z,10.85
2022-12-18T23:03:02.321Z,10.23
2022-12-18T23:05:32.651Z,12.05
2022-12-18T23:08:01.010Z,9.93
2022-12-18T23:10:29.627Z,9.93
2022-12-18T23:12:58.036Z,13.48
2022-12-18T23:15:29.803Z,14.77
2022-12-18T23:17:59.770Z,10.57
2022-12-18T23:20:28.989Z,15.73
2022-12-18T23:22:58.655Z,8.57
2022-12-18T23:25:26.920Z,8.23
2022-12-18T23:27:55.236Z,9.18
2022-12-18T23:30:23.541Z,9.50
2022-12-18T23:32:51.852Z,8.77
2022-12-18T23:35:20.214Z,6.63
2022-12-18T23:37:59.047Z,8.27
2022-12-18T23:40:30.538Z,7.82
2022-12-18T23:43:00.772Z,4.15
2022-12-18T23:45:29.210Z,6.40
2022-12-18T23:47:57.526Z,6.90
2022-12-18T23:50:29.307Z,8.57
2022-12-18T23:53:05.186Z,7.03
2022-12-18T23:55:40.456Z,3.97
2022-12-18T23:58:16.062Z,6.55
